sensor_id;sensor_type;location;lat;lon;timestamp;P1;durP1;ratioP1;P2;durP2;ratioP2
27161;SDS011;54464;50.558;9.704;2023-06-14T00:02:14;4.20;;;3.57;;
27161;SDS011;54464;50.558;9.704;2023-06-14T00:04:40;4.17;;;3.43;;
27161;SDS011;54464;50.558;9.704;2023-06-14T00:07:06;4.43;;;3.70;;
27161;SDS011;54464;50.558;9.704;2023-06-14T00:09:35;4.33;;;3.47;;
27161;SDS011;54464;50.558;9.704;2023-06-14T00:12:01;4.63;;;3.73;;
27161;SDS011;54464;50.558;9.704;2023-06-14T00:14:26;3.47;;;3.17;;
27161;SDS011;54464;50.558;9.704;2023-06-14T00:16:52;3.90;;;3.60;;
27161;SDS011;54464;50.558;9.704;2023-06-14T00:19:18;5.07;;;3.83;;
27161;SDS011;54464;50.558;9.704;2023-06-14T00:21:44;5.43;;;4.20;;
27161;SDS011;54464;50.558;9.704;2023-06-14T00:24:10;5.97;;;3.87;;
27161;SDS011;54464;50.558;9.704;2023-06-14T00:26:36;5.60;;;3.93;;
27161;SDS011;54464;50.558;9.704;2023-06-14T00:29:02;4.40;;;3.53;;
27161;SDS011;54464;50.558;9.704;2023-06-14T00:31:27;4.77;;;3.40;;
27161;SDS011;54464;50.558;9.704;2023-06-14T00:33:53;6.63;;;4.00;;
27161;SDS011;54464;50.558;9.704;2023-06-14T00:36:19;4.17;;;3.77;;
27161;SDS011;54464;50.558;9.704;2023-06-14T00:38:45;6.00;;;4.77;;
27161;SDS011;54464;50.558;9.704;2023-06-14T00:41:10;4.00;;;3.60;;
27161;SDS011;54464;50.558;9.704;2023-06-14T00:43:36;5.17;;;4.10;;
27161;SDS011;54464;50.558;9.704;2023-06-14T00:46:21;6.73;;;4.27;;
27161;SDS011;54464;50.558;9.704;2023-06-14T00:48:47;7.33;;;4.37;;
27161;SDS011;54464;50.558;9.704;2023-06-14T00:51:19;4.97;;;3.77;;
27161;SDS011;54464;50.558;9.704;2023-06-14T00:53:48;5.47;;;3.80;;
27161;SDS011;54464;50.558;9.704;2023-06-14T00:56:16;5.70;;;4.07;;
27161;SDS011;54464;50.558;9.704;2023-06-14T00:58:45;4.17;;;3.83;;
27161;SDS011;54464;50.558;9.704;2023-06-14T01:01:11;4.47;;;4.07;;
27161;SDS011;54464;50.558;9.704;2023-06-14T01:03:36;6.03;;;3.97;;
27161;SDS011;54464;50.558;9.704;2023-06-14T01:06:07;4.07;;;3.67;;
27161;SDS011;54464;50.558;9.704;2023-06-14T01:11:45;5.43;;;3.83;;
27161;SDS011;54464;50.558;9.704;2023-06-14T01:14:19;5.73;;;3.93;;
27161;SDS011;54464;50.558;9.704;2023-06-14T01:16:46;6.70;;;3.87;;
27161;SDS011;54464;50.558;9.704;2023-06-14T01:19:18;5.03;;;3.90;;
27161;SDS011;54464;50.558;9.704;2023-06-14T01:21:50;5.53;;;3.80;;
27161;SDS011;54464;50.558;9.704;2023-06-14T01:24:25;4.43;;;3.77;;
27161;SDS011;54464;50.558;9.704;2023-06-14T01:26:57;4.50;;;3.50;;
27161;SDS011;54464;50.558;9.704;2023-06-14T01:29:27;5.40;;;3.83;;
27161;SDS011;54464;50.558;9.704;2023-06-14T01:31:57;4.37;;;3.90;;
27161;SDS011;54464;50.558;9.704;2023-06-14T01:34:24;4.23;;;3.77;;
27161;SDS011;54464;50.558;9.704;2023-06-14T01:36:50;4.60;;;3.73;;
27161;SDS011;54464;50.558;9.704;2023-06-14T01:39:17;4.47;;;3.90;;
27161;SDS011;54464;50.558;9.704;2023-06-14T01:41:42;4.10;;;3.70;;
27161;SDS011;54464;50.558;9.704;2023-06-14T01:44:10;3.77;;;3.40;;
27161;SDS011;54464;50.558;9.704;2023-06-14T01:46:38;3.93;;;3.53;;
27161;SDS011;54464;50.558;9.704;2023-06-14T01:49:08;3.77;;;3.37;;
27161;SDS011;54464;50.558;9.704;2023-06-14T01:51:33;4.50;;;4.10;;
27161;SDS011;54464;50.558;9.704;2023-06-14T01:54:09;4.10;;;3.67;;
27161;SDS011;54464;50.558;9.704;2023-06-14T01:56:34;4.60;;;4.07;;
27161;SDS011;54464;50.558;9.704;2023-06-14T01:59:00;5.23;;;4.20;;
27161;SDS011;54464;50.558;9.704;2023-06-14T02:01:25;6.27;;;3.53;;
27161;SDS011;54464;50.558;9.704;2023-06-14T02:03:51;4.00;;;3.60;;
27161;SDS011;54464;50.558;9.704;2023-06-14T02:06:23;4.30;;;3.50;;
27161;SDS011;54464;50.558;9.704;2023-06-14T02:08:51;4.07;;;3.67;;
27161;SDS011;54464;50.558;9.704;2023-06-14T02:11:17;6.43;;;3.93;;
27161;SDS011;54464;50.558;9.704;2023-06-14T02:13:45;4.47;;;3.80;;
27161;SDS011;54464;50.558;9.704;2023-06-14T02:16:10;5.67;;;4.10;;
27161;SDS011;54464;50.558;9.704;2023-06-14T02:18:36;6.07;;;4.00;;
27161;SDS011;54464;50.558;9.704;2023-06-14T02:21:02;5.20;;;3.97;;
27161;SDS011;54464;50.558;9.704;2023-06-14T02:23:27;4.10;;;3.70;;
27161;SDS011;54464;50.558;9.704;2023-06-14T02:25:57;3.93;;;3.33;;
27161;SDS011;54464;50.558;9.704;2023-06-14T02:28:25;5.57;;;4.10;;
27161;SDS011;54464;50.558;9.704;2023-06-14T02:30:50;3.93;;;3.57;;
27161;SDS011;54464;50.558;9.704;2023-06-14T02:33:19;5.70;;;3.47;;
27161;SDS011;54464;50.558;9.704;2023-06-14T02:35:53;4.20;;;3.73;;
27161;SDS011;54464;50.558;9.704;2023-06-14T02:38:19;4.17;;;3.77;;
27161;SDS011;54464;50.558;9.704;2023-06-14T02:40:44;4.67;;;3.63;;
27161;SDS011;54464;50.558;9.704;2023-06-14T02:43:24;5.07;;;3.83;;
27161;SDS011;54464;50.558;9.704;2023-06-14T02:45:49;5.70;;;3.90;;
27161;SDS011;54464;50.558;9.704;2023-06-14T02:48:18;5.10;;;4.23;;
27161;SDS011;54464;50.558;9.704;2023-06-14T02:50:46;4.00;;;3.60;;
27161;SDS011;54464;50.558;9.704;2023-06-14T02:53:15;6.17;;;3.43;;
27161;SDS011;54464;50.558;9.704;2023-06-14T02:55:40;8.07;;;4.33;;
27161;SDS011;54464;50.558;9.704;2023-06-14T02:58:06;4.47;;;4.07;;
27161;SDS011;54464;50.558;9.704;2023-06-14T03:00:32;5.33;;;3.90;;
27161;SDS011;54464;50.558;9.704;2023-06-14T03:03:01;5.30;;;4.03;;
27161;SDS011;54464;50.558;9.704;2023-06-14T03:05:26;4.33;;;3.93;;
27161;SDS011;54464;50.558;9.704;2023-06-14T03:07:53;4.30;;;3.90;;
27161;SDS011;54464;50.558;9.704;2023-06-14T03:10:19;7.17;;;4.30;;
27161;SDS011;54464;50.558;9.704;2023-06-14T03:12:45;4.13;;;3.73;;
27161;SDS011;54464;50.558;9.704;2023-06-14T03:15:12;5.73;;;4.03;;
27161;SDS011;54464;50.558;9.704;2023-06-14T03:17:38;4.57;;;4.03;;
27161;SDS011;54464;50.558;9.704;2023-06-14T03:20:04;6.03;;;4.03;;
27161;SDS011;54464;50.558;9.704;2023-06-14T03:22:33;5.13;;;3.83;;
27161;SDS011;54464;50.558;9.704;2023-06-14T03:24:59;4.37;;;3.90;;
27161;SDS011;54464;50.558;9.704;2023-06-14T03:27:29;4.37;;;3.67;;
27161;SDS011;54464;50.558;9.704;2023-06-14T03:29:54;4.17;;;3.77;;
27161;SDS011;54464;50.558;9.704;2023-06-14T03:32:20;5.87;;;4.13;;
27161;SDS011;54464;50.558;9.704;2023-06-14T03:34:45;5.27;;;4.13;;
27161;SDS011;54464;50.558;9.704;2023-06-14T03:37:14;5.87;;;4.30;;
27161;SDS011;54464;50.558;9.704;2023-06-14T03:39:48;4.40;;;4.00;;
27161;SDS011;54464;50.558;9.704;2023-06-14T03:42:14;4.53;;;4.10;;
27161;SDS011;54464;50.558;9.704;2023-06-14T03:44:42;4.20;;;3.80;;
27161;SDS011;54464;50.558;9.704;2023-06-14T03:47:11;4.03;;;3.73;;
27161;SDS011;54464;50.558;9.704;2023-06-14T03:49:36;4.90;;;3.93;;
27161;SDS011;54464;50.558;9.704;2023-06-14T03:52:02;5.73;;;4.27;;
27161;SDS011;54464;50.558;9.704;2023-06-14T03:54:33;4.03;;;3.73;;
27161;SDS011;54464;50.558;9.704;2023-06-14T03:57:02;7.93;;;4.20;;
27161;SDS011;54464;50.558;9.704;2023-06-14T03:59:27;4.90;;;3.70;;
27161;SDS011;54464;50.558;9.704;2023-06-14T04:01:53;5.37;;;3.60;;
27161;SDS011;54464;50.558;9.704;2023-06-14T04:04:24;6.27;;;3.97;;
27161;SDS011;54464;50.558;9.704;2023-06-14T04:07:12;5.23;;;4.20;;
27161;SDS011;54464;50.558;9.704;2023-06-14T04:09:38;5.13;;;3.90;;
27161;SDS011;54464;50.558;9.704;2023-06-14T04:12:10;3.97;;;3.57;;
27161;SDS011;54464;50.558;9.704;2023-06-14T04:14:41;5.43;;;4.23;;
27161;SDS011;54464;50.558;9.704;2023-06-14T04:17:06;5.20;;;4.00;;
27161;SDS011;54464;50.558;9.704;2023-06-14T04:19:35;4.63;;;3.97;;
27161;SDS011;54464;50.558;9.704;2023-06-14T04:22:10;5.03;;;3.67;;
27161;SDS011;54464;50.558;9.704;2023-06-14T04:24:36;4.17;;;3.77;;
27161;SDS011;54464;50.558;9.704;2023-06-14T04:27:05;5.57;;;3.73;;
27161;SDS011;54464;50.558;9.704;2023-06-14T04:29:36;6.13;;;3.77;;
27161;SDS011;54464;50.558;9.704;2023-06-14T04:34:57;4.43;;;4.00;;
27161;SDS011;54464;50.558;9.704;2023-06-14T04:37:24;4.60;;;3.93;;
27161;SDS011;54464;50.558;9.704;2023-06-14T04:39:56;4.30;;;3.90;;
27161;SDS011;54464;50.558;9.704;2023-06-14T04:42:22;4.53;;;3.93;;
27161;SDS011;54464;50.558;9.704;2023-06-14T04:44:50;4.30;;;3.80;;
27161;SDS011;54464;50.558;9.704;2023-06-14T04:47:20;5.00;;;4.50;;
27161;SDS011;54464;50.558;9.704;2023-06-14T04:49:46;5.57;;;3.93;;
27161;SDS011;54464;50.558;9.704;2023-06-14T04:52:20;5.37;;;4.00;;
27161;SDS011;54464;50.558;9.704;2023-06-14T04:54:51;5.37;;;4.27;;
27161;SDS011;54464;50.558;9.704;2023-06-14T04:57:17;5.20;;;4.07;;
27161;SDS011;54464;50.558;9.704;2023-06-14T04:59:47;4.33;;;3.70;;
27161;SDS011;54464;50.558;9.704;2023-06-14T05:02:34;5.60;;;3.67;;
27161;SDS011;54464;50.558;9.704;2023-06-14T05:05:00;5.13;;;3.60;;
27161;SDS011;54464;50.558;9.704;2023-06-14T05:07:27;6.00;;;3.73;;
27161;SDS011;54464;50.558;9.704;2023-06-14T05:09:52;4.17;;;3.73;;
27161;SDS011;54464;50.558;9.704;2023-06-14T05:12:18;4.40;;;4.00;;
27161;SDS011;54464;50.558;9.704;2023-06-14T05:14:44;4.87;;;3.73;;
27161;SDS011;54464;50.558;9.704;2023-06-14T05:17:10;5.23;;;3.73;;
27161;SDS011;54464;50.558;9.704;2023-06-14T05:19:36;3.97;;;3.57;;
27161;SDS011;54464;50.558;9.704;2023-06-14T05:22:01;4.77;;;3.50;;
27161;SDS011;54464;50.558;9.704;2023-06-14T05:24:28;5.40;;;4.30;;
27161;SDS011;54464;50.558;9.704;2023-06-14T05:26:55;3.73;;;3.33;;
27161;SDS011;54464;50.558;9.704;2023-06-14T05:29:21;6.27;;;4.17;;
27161;SDS011;54464;50.558;9.704;2023-06-14T05:31:47;4.73;;;3.50;;
27161;SDS011;54464;50.558;9.704;2023-06-14T05:34:12;4.67;;;3.53;;
27161;SDS011;54464;50.558;9.704;2023-06-14T05:36:38;6.20;;;3.90;;
27161;SDS011;54464;50.558;9.704;2023-06-14T05:39:04;4.57;;;4.03;;
27161;SDS011;54464;50.558;9.704;2023-06-14T05:41:30;4.53;;;3.43;;
27161;SDS011;54464;50.558;9.704;2023-06-14T05:43:56;3.97;;;3.53;;
27161;SDS011;54464;50.558;9.704;2023-06-14T05:46:22;4.90;;;3.27;;
27161;SDS011;54464;50.558;9.704;2023-06-14T05:48:52;4.87;;;4.10;;
27161;SDS011;54464;50.558;9.704;2023-06-14T05:51:18;3.70;;;3.30;;
27161;SDS011;54464;50.558;9.704;2023-06-14T05:53:47;5.70;;;3.53;;
27161;SDS011;54464;50.558;9.704;2023-06-14T05:56:13;5.77;;;3.63;;
27161;SDS011;54464;50.558;9.704;2023-06-14T05:58:40;5.23;;;3.87;;
27161;SDS011;54464;50.558;9.704;2023-06-14T06:01:06;5.00;;;3.60;;
27161;SDS011;54464;50.558;9.704;2023-06-14T06:03:32;4.13;;;3.40;;
27161;SDS011;54464;50.558;9.704;2023-06-14T06:05:58;4.27;;;3.73;;
27161;SDS011;54464;50.558;9.704;2023-06-14T06:08:24;3.43;;;3.13;;
27161;SDS011;54464;50.558;9.704;2023-06-14T06:10:50;3.43;;;2.83;;
27161;SDS011;54464;50.558;9.704;2023-06-14T06:13:16;4.17;;;3.63;;
27161;SDS011;54464;50.558;9.704;2023-06-14T06:15:41;3.83;;;3.43;;
27161;SDS011;54464;50.558;9.704;2023-06-14T06:18:07;3.77;;;3.37;;
27161;SDS011;54464;50.558;9.704;2023-06-14T06:20:33;3.37;;;3.07;;
27161;SDS011;54464;50.558;9.704;2023-06-14T06:22:58;4.43;;;3.10;;
27161;SDS011;54464;50.558;9.704;2023-06-14T06:25:25;3.90;;;3.23;;
27161;SDS011;54464;50.558;9.704;2023-06-14T06:27:57;4.13;;;3.73;;
27161;SDS011;54464;50.558;9.704;2023-06-14T06:30:23;3.67;;;3.33;;
27161;SDS011;54464;50.558;9.704;2023-06-14T06:32:49;5.27;;;3.17;;
27161;SDS011;54464;50.558;9.704;2023-06-14T06:35:15;5.00;;;3.40;;
27161;SDS011;54464;50.558;9.704;2023-06-14T06:37:50;3.60;;;3.30;;
27161;SDS011;54464;50.558;9.704;2023-06-14T06:40:16;4.53;;;3.40;;
27161;SDS011;54464;50.558;9.704;2023-06-14T06:42:42;4.07;;;3.27;;
27161;SDS011;54464;50.558;9.704;2023-06-14T06:45:19;4.77;;;3.23;;
27161;SDS011;54464;50.558;9.704;2023-06-14T06:47:44;4.63;;;3.53;;
27161;SDS011;54464;50.558;9.704;2023-06-14T06:50:10;3.77;;;3.47;;
27161;SDS011;54464;50.558;9.704;2023-06-14T06:52:35;3.77;;;3.43;;
27161;SDS011;54464;50.558;9.704;2023-06-14T06:55:06;4.13;;;3.40;;
27161;SDS011;54464;50.558;9.704;2023-06-14T06:57:33;4.57;;;3.87;;
27161;SDS011;54464;50.558;9.704;2023-06-14T06:59:59;4.77;;;3.53;;
27161;SDS011;54464;50.558;9.704;2023-06-14T07:02:27;5.37;;;3.50;;
27161;SDS011;54464;50.558;9.704;2023-06-14T07:04:53;4.43;;;3.60;;
27161;SDS011;54464;50.558;9.704;2023-06-14T07:07:19;3.87;;;3.47;;
27161;SDS011;54464;50.558;9.704;2023-06-14T07:09:45;4.00;;;3.43;;
27161;SDS011;54464;50.558;9.704;2023-06-14T07:12:11;5.00;;;3.70;;
27161;SDS011;54464;50.558;9.704;2023-06-14T07:14:36;5.93;;;3.70;;
27161;SDS011;54464;50.558;9.704;2023-06-14T07:17:02;5.37;;;3.87;;
27161;SDS011;54464;50.558;9.704;2023-06-14T07:19:28;3.93;;;3.10;;
27161;SDS011;54464;50.558;9.704;2023-06-14T07:21:53;3.80;;;3.43;;
27161;SDS011;54464;50.558;9.704;2023-06-14T07:24:19;4.63;;;3.33;;
27161;SDS011;54464;50.558;9.704;2023-06-14T07:26:46;4.00;;;3.00;;
27161;SDS011;54464;50.558;9.704;2023-06-14T07:29:13;3.83;;;3.50;;
27161;SDS011;54464;50.558;9.704;2023-06-14T07:31:39;5.63;;;3.47;;
27161;SDS011;54464;50.558;9.704;2023-06-14T07:34:04;3.37;;;3.07;;
27161;SDS011;54464;50.558;9.704;2023-06-14T07:36:39;3.67;;;3.30;;
27161;SDS011;54464;50.558;9.704;2023-06-14T07:39:04;3.83;;;3.50;;
27161;SDS011;54464;50.558;9.704;2023-06-14T07:41:31;3.87;;;3.10;;
27161;SDS011;54464;50.558;9.704;2023-06-14T07:43:57;3.20;;;2.90;;
27161;SDS011;54464;50.558;9.704;2023-06-14T07:46:23;3.60;;;3.10;;
27161;SDS011;54464;50.558;9.704;2023-06-14T07:48:49;5.70;;;3.50;;
27161;SDS011;54464;50.558;9.704;2023-06-14T07:51:14;4.10;;;2.90;;
27161;SDS011;54464;50.558;9.704;2023-06-14T07:53:40;3.23;;;2.80;;
27161;SDS011;54464;50.558;9.704;2023-06-14T07:56:07;3.13;;;2.83;;
27161;SDS011;54464;50.558;9.704;2023-06-14T07:58:32;4.17;;;3.00;;
27161;SDS011;54464;50.558;9.704;2023-06-14T08:00:58;3.57;;;3.27;;
27161;SDS011;54464;50.558;9.704;2023-06-14T08:03:25;3.33;;;2.80;;
27161;SDS011;54464;50.558;9.704;2023-06-14T08:05:51;4.33;;;3.10;;
27161;SDS011;54464;50.558;9.704;2023-06-14T08:08:17;2.93;;;2.63;;
27161;SDS011;54464;50.558;9.704;2023-06-14T08:10:42;3.03;;;2.73;;
27161;SDS011;54464;50.558;9.704;2023-06-14T08:13:08;4.23;;;3.10;;
27161;SDS011;54464;50.558;9.704;2023-06-14T08:15:34;2.80;;;2.60;;
27161;SDS011;54464;50.558;9.704;2023-06-14T08:18:00;3.10;;;2.80;;
27161;SDS011;54464;50.558;9.704;2023-06-14T08:20:26;5.63;;;3.23;;
27161;SDS011;54464;50.558;9.704;2023-06-14T08:23:00;2.80;;;2.60;;
27161;SDS011;54464;50.558;9.704;2023-06-14T08:25:27;2.70;;;2.50;;
27161;SDS011;54464;50.558;9.704;2023-06-14T08:27:53;4.87;;;2.70;;
27161;SDS011;54464;50.558;9.704;2023-06-14T08:30:18;5.00;;;2.67;;
27161;SDS011;54464;50.558;9.704;2023-06-14T08:32:44;3.20;;;2.80;;
27161;SDS011;54464;50.558;9.704;2023-06-14T08:35:09;4.43;;;3.07;;
27161;SDS011;54464;50.558;9.704;2023-06-14T08:37:38;2.70;;;2.50;;
27161;SDS011;54464;50.558;9.704;2023-06-14T08:40:06;3.00;;;2.70;;
27161;SDS011;54464;50.558;9.704;2023-06-14T08:42:43;3.30;;;3.00;;
27161;SDS011;54464;50.558;9.704;2023-06-14T08:45:10;3.43;;;2.60;;
27161;SDS011;54464;50.558;9.704;2023-06-14T08:47:36;2.90;;;2.60;;
27161;SDS011;54464;50.558;9.704;2023-06-14T08:50:01;3.90;;;2.70;;
27161;SDS011;54464;50.558;9.704;2023-06-14T08:52:29;3.50;;;2.50;;
27161;SDS011;54464;50.558;9.704;2023-06-14T08:54:58;3.37;;;2.73;;
27161;SDS011;54464;50.558;9.704;2023-06-14T08:57:25;3.43;;;2.77;;
27161;SDS011;54464;50.558;9.704;2023-06-14T08:59:55;3.23;;;2.70;;
27161;SDS011;54464;50.558;9.704;2023-06-14T09:02:22;4.65;;;2.53;;
27161;SDS011;54464;50.558;9.704;2023-06-14T09:04:47;3.67;;;2.70;;
27161;SDS011;54464;50.558;9.704;2023-06-14T09:07:14;2.78;;;2.50;;
27161;SDS011;54464;50.558;9.704;2023-06-14T09:09:40;4.63;;;2.58;;
27161;SDS011;54464;50.558;9.704;2023-06-14T09:12:10;2.58;;;2.38;;
27161;SDS011;54464;50.558;9.704;2023-06-14T09:14:37;3.97;;;2.50;;
27161;SDS011;54464;50.558;9.704;2023-06-14T09:17:05;4.87;;;2.43;;
27161;SDS011;54464;50.558;9.704;2023-06-14T09:19:31;3.17;;;2.67;;
27161;SDS011;54464;50.558;9.704;2023-06-14T09:21:56;3.25;;;2.40;;
27161;SDS011;54464;50.558;9.704;2023-06-14T09:24:24;3.78;;;2.35;;
27161;SDS011;54464;50.558;9.704;2023-06-14T09:26:51;3.17;;;2.50;;
27161;SDS011;54464;50.558;9.704;2023-06-14T09:29:17;4.38;;;2.70;;
27161;SDS011;54464;50.558;9.704;2023-06-14T09:31:45;3.05;;;2.42;;
27161;SDS011;54464;50.558;9.704;2023-06-14T09:34:11;3.05;;;2.17;;
27161;SDS011;54464;50.558;9.704;2023-06-14T09:36:37;2.88;;;2.60;;
27161;SDS011;54464;50.558;9.704;2023-06-14T09:39:05;2.97;;;2.60;;
27161;SDS011;54464;50.558;9.704;2023-06-14T09:41:31;3.90;;;2.97;;
27161;SDS011;54464;50.558;9.704;2023-06-14T09:44:01;2.97;;;2.60;;
27161;SDS011;54464;50.558;9.704;2023-06-14T09:46:32;4.47;;;2.70;;
27161;SDS011;54464;50.558;9.704;2023-06-14T09:48:58;2.53;;;2.33;;
27161;SDS011;54464;50.558;9.704;2023-06-14T09:51:25;2.85;;;2.63;;
27161;SDS011;54464;50.558;9.704;2023-06-14T09:53:52;3.33;;;2.97;;
27161;SDS011;54464;50.558;9.704;2023-06-14T09:56:25;3.63;;;2.53;;
27161;SDS011;54464;50.558;9.704;2023-06-14T09:59:12;3.20;;;2.90;;
27161;SDS011;54464;50.558;9.704;2023-06-14T10:01:42;4.05;;;2.88;;
27161;SDS011;54464;50.558;9.704;2023-06-14T10:04:08;3.70;;;2.60;;
27161;SDS011;54464;50.558;9.704;2023-06-14T10:06:42;4.00;;;2.55;;
27161;SDS011;54464;50.558;9.704;2023-06-14T10:09:10;4.70;;;2.55;;
27161;SDS011;54464;50.558;9.704;2023-06-14T10:11:37;3.13;;;2.83;;
27161;SDS011;54464;50.558;9.704;2023-06-14T10:14:08;3.35;;;2.60;;
27161;SDS011;54464;50.558;9.704;2023-06-14T10:19:20;3.67;;;2.45;;
27161;SDS011;54464;50.558;9.704;2023-06-14T10:22:09;2.40;;;2.20;;
27161;SDS011;54464;50.558;9.704;2023-06-14T10:24:43;2.30;;;2.10;;
27161;SDS011;54464;50.558;9.704;2023-06-14T10:27:10;4.47;;;2.35;;
27161;SDS011;54464;50.558;9.704;2023-06-14T10:32:20;2.70;;;2.50;;
27161;SDS011;54464;50.558;9.704;2023-06-14T10:34:46;3.30;;;2.60;;
27161;SDS011;54464;50.558;9.704;2023-06-14T10:37:22;3.20;;;2.40;;
27161;SDS011;54464;50.558;9.704;2023-06-14T10:39:47;4.60;;;2.50;;
27161;SDS011;54464;50.558;9.704;2023-06-14T10:42:14;3.55;;;2.20;;
27161;SDS011;54464;50.558;9.704;2023-06-14T10:44:41;2.50;;;2.30;;
27161;SDS011;54464;50.558;9.704;2023-06-14T10:49:51;3.42;;;2.47;;
27161;SDS011;54464;50.558;9.704;2023-06-14T10:52:23;3.35;;;2.22;;
27161;SDS011;54464;50.558;9.704;2023-06-14T10:54:56;2.50;;;2.30;;
27161;SDS011;54464;50.558;9.704;2023-06-14T10:57:33;2.40;;;2.20;;
27161;SDS011;54464;50.558;9.704;2023-06-14T11:00:16;3.00;;;2.42;;
27161;SDS011;54464;50.558;9.704;2023-06-14T11:08:24;2.70;;;2.10;;
27161;SDS011;54464;50.558;9.704;2023-06-14T11:11:10;2.55;;;2.35;;
27161;SDS011;54464;50.558;9.704;2023-06-14T11:13:42;5.28;;;2.60;;
27161;SDS011;54464;50.558;9.704;2023-06-14T11:16:10;2.90;;;2.03;;
27161;SDS011;54464;50.558;9.704;2023-06-14T11:18:38;2.53;;;2.33;;
27161;SDS011;54464;50.558;9.704;2023-06-14T11:21:04;2.45;;;2.05;;
27161;SDS011;54464;50.558;9.704;2023-06-14T11:23:30;2.30;;;2.10;;
27161;SDS011;54464;50.558;9.704;2023-06-14T11:25:56;2.40;;;2.20;;
27161;SDS011;54464;50.558;9.704;2023-06-14T11:28:21;2.83;;;2.53;;
27161;SDS011;54464;50.558;9.704;2023-06-14T11:30:49;2.42;;;2.22;;
27161;SDS011;54464;50.558;9.704;2023-06-14T11:33:24;5.07;;;4.43;;
27161;SDS011;54464;50.558;9.704;2023-06-14T11:35:50;4.07;;;3.00;;
27161;SDS011;54464;50.558;9.704;2023-06-14T11:38:17;2.70;;;2.50;;
27161;SDS011;54464;50.558;9.704;2023-06-14T11:40:42;2.58;;;2.38;;
27161;SDS011;54464;50.558;9.704;2023-06-14T11:43:08;2.30;;;2.10;;
27161;SDS011;54464;50.558;9.704;2023-06-14T11:45:34;4.13;;;2.30;;
27161;SDS011;54464;50.558;9.704;2023-06-14T11:48:00;2.80;;;2.60;;
27161;SDS011;54464;50.558;9.704;2023-06-14T11:50:26;2.40;;;2.17;;
27161;SDS011;54464;50.558;9.704;2023-06-14T11:52:56;2.33;;;2.20;;
27161;SDS011;54464;50.558;9.704;2023-06-14T11:55:25;2.53;;;2.20;;
27161;SDS011;54464;50.558;9.704;2023-06-14T11:57:50;2.90;;;2.28;;
27161;SDS011;54464;50.558;9.704;2023-06-14T12:00:18;3.03;;;2.42;;
27161;SDS011;54464;50.558;9.704;2023-06-14T12:02:53;2.50;;;2.30;;
27161;SDS011;54464;50.558;9.704;2023-06-14T12:05:21;2.30;;;2.10;;
27161;SDS011;54464;50.558;9.704;2023-06-14T12:07:47;2.65;;;2.10;;
27161;SDS011;54464;50.558;9.704;2023-06-14T12:10:14;3.50;;;2.00;;
27161;SDS011;54464;50.558;9.704;2023-06-14T12:12:40;2.38;;;2.05;;
27161;SDS011;54464;50.558;9.704;2023-06-14T12:15:07;2.75;;;2.25;;
27161;SDS011;54464;50.558;9.704;2023-06-14T12:17:34;3.60;;;2.25;;
27161;SDS011;54464;50.558;9.704;2023-06-14T12:20:10;4.03;;;2.33;;
27161;SDS011;54464;50.558;9.704;2023-06-14T12:22:53;2.92;;;2.35;;
27161;SDS011;54464;50.558;9.704;2023-06-14T12:25:28;1.90;;;1.80;;
27161;SDS011;54464;50.558;9.704;2023-06-14T12:27:56;2.78;;;2.28;;
27161;SDS011;54464;50.558;9.704;2023-06-14T12:30:22;2.10;;;1.90;;
27161;SDS011;54464;50.558;9.704;2023-06-14T12:32:48;2.40;;;2.20;;
27161;SDS011;54464;50.558;9.704;2023-06-14T12:35:18;2.03;;;1.88;;
27161;SDS011;54464;50.558;9.704;2023-06-14T12:37:44;3.03;;;2.03;;
27161;SDS011;54464;50.558;9.704;2023-06-14T12:40:11;2.00;;;1.80;;
27161;SDS011;54464;50.558;9.704;2023-06-14T12:42:37;2.55;;;2.35;;
27161;SDS011;54464;50.558;9.704;2023-06-14T12:45:05;3.15;;;2.00;;
27161;SDS011;54464;50.558;9.704;2023-06-14T12:47:34;2.20;;;2.00;;
27161;SDS011;54464;50.558;9.704;2023-06-14T12:50:00;2.00;;;1.80;;
27161;SDS011;54464;50.558;9.704;2023-06-14T12:52:26;3.00;;;2.13;;
27161;SDS011;54464;50.558;9.704;2023-06-14T12:54:52;2.42;;;1.98;;
27161;SDS011;54464;50.558;9.704;2023-06-14T12:57:17;2.00;;;1.90;;
27161;SDS011;54464;50.558;9.704;2023-06-14T12:59:49;2.00;;;1.80;;
27161;SDS011;54464;50.558;9.704;2023-06-14T13:02:15;2.20;;;2.00;;
27161;SDS011;54464;50.558;9.704;2023-06-14T13:04:42;2.15;;;1.80;;
27161;SDS011;54464;50.558;9.704;2023-06-14T13:07:09;3.72;;;2.00;;
27161;SDS011;54464;50.558;9.704;2023-06-14T13:09:35;3.40;;;2.03;;
27161;SDS011;54464;50.558;9.704;2023-06-14T13:12:01;2.10;;;1.90;;
27161;SDS011;54464;50.558;9.704;2023-06-14T13:14:27;1.92;;;1.83;;
27161;SDS011;54464;50.558;9.704;2023-06-14T13:16:53;2.25;;;1.75;;
27161;SDS011;54464;50.558;9.704;2023-06-14T13:19:20;2.30;;;1.90;;
27161;SDS011;54464;50.558;9.704;2023-06-14T13:21:48;2.03;;;1.90;;
27161;SDS011;54464;50.558;9.704;2023-06-14T13:24:13;2.30;;;2.00;;
27161;SDS011;54464;50.558;9.704;2023-06-14T13:26:39;3.75;;;2.22;;
27161;SDS011;54464;50.558;9.704;2023-06-14T13:29:05;2.20;;;2.00;;
27161;SDS011;54464;50.558;9.704;2023-06-14T13:31:33;2.90;;;2.08;;
27161;SDS011;54464;50.558;9.704;2023-06-14T13:33:59;2.47;;;1.92;;
27161;SDS011;54464;50.558;9.704;2023-06-14T13:36:24;2.20;;;2.00;;
27161;SDS011;54464;50.558;9.704;2023-06-14T13:38:50;2.50;;;2.30;;
27161;SDS011;54464;50.558;9.704;2023-06-14T13:41:17;1.98;;;1.88;;
27161;SDS011;54464;50.558;9.704;2023-06-14T13:43:43;2.88;;;2.17;;
27161;SDS011;54464;50.558;9.704;2023-06-14T13:46:08;2.85;;;2.15;;
27161;SDS011;54464;50.558;9.704;2023-06-14T13:48:39;4.60;;;2.28;;
27161;SDS011;54464;50.558;9.704;2023-06-14T13:51:08;3.22;;;2.30;;
27161;SDS011;54464;50.558;9.704;2023-06-14T13:53:42;2.65;;;2.45;;
27161;SDS011;54464;50.558;9.704;2023-06-14T13:56:08;6.45;;;2.53;;
27161;SDS011;54464;50.558;9.704;2023-06-14T13:58:34;2.38;;;2.17;;
27161;SDS011;54464;50.558;9.704;2023-06-14T14:01:06;2.47;;;2.28;;
27161;SDS011;54464;50.558;9.704;2023-06-14T14:03:32;2.53;;;2.30;;
27161;SDS011;54464;50.558;9.704;2023-06-14T14:05:58;3.10;;;2.65;;
27161;SDS011;54464;50.558;9.704;2023-06-14T14:08:23;2.47;;;2.20;;
27161;SDS011;54464;50.558;9.704;2023-06-14T14:10:49;2.45;;;2.08;;
27161;SDS011;54464;50.558;9.704;2023-06-14T14:13:15;2.60;;;2.40;;
27161;SDS011;54464;50.558;9.704;2023-06-14T14:15:40;2.47;;;2.13;;
27161;SDS011;54464;50.558;9.704;2023-06-14T14:18:06;3.75;;;2.30;;
27161;SDS011;54464;50.558;9.704;2023-06-14T14:20:32;3.78;;;2.20;;
27161;SDS011;54464;50.558;9.704;2023-06-14T14:23:01;2.15;;;1.90;;
27161;SDS011;54464;50.558;9.704;2023-06-14T14:25:30;2.58;;;2.20;;
27161;SDS011;54464;50.558;9.704;2023-06-14T14:27:56;2.50;;;2.10;;
27161;SDS011;54464;50.558;9.704;2023-06-14T14:30:22;2.42;;;2.15;;
27161;SDS011;54464;50.558;9.704;2023-06-14T14:32:48;2.75;;;1.83;;
27161;SDS011;54464;50.558;9.704;2023-06-14T14:35:16;2.85;;;2.20;;
27161;SDS011;54464;50.558;9.704;2023-06-14T14:37:42;2.45;;;2.25;;
27161;SDS011;54464;50.558;9.704;2023-06-14T14:40:11;2.78;;;1.98;;
27161;SDS011;54464;50.558;9.704;2023-06-14T14:42:37;2.35;;;2.15;;
27161;SDS011;54464;50.558;9.704;2023-06-14T14:45:03;2.47;;;2.00;;
27161;SDS011;54464;50.558;9.704;2023-06-14T14:47:28;3.03;;;2.13;;
27161;SDS011;54464;50.558;9.704;2023-06-14T14:50:03;2.20;;;2.00;;
27161;SDS011;54464;50.558;9.704;2023-06-14T14:52:29;2.60;;;1.98;;
27161;SDS011;54464;50.558;9.704;2023-06-14T14:54:54;4.65;;;2.58;;
27161;SDS011;54464;50.558;9.704;2023-06-14T14:57:23;1.98;;;1.73;;
27161;SDS011;54464;50.558;9.704;2023-06-14T14:59:51;2.25;;;2.05;;
27161;SDS011;54464;50.558;9.704;2023-06-14T15:02:16;1.95;;;1.80;;
27161;SDS011;54464;50.558;9.704;2023-06-14T15:04:42;2.25;;;1.90;;
27161;SDS011;54464;50.558;9.704;2023-06-14T15:07:16;2.97;;;1.90;;
27161;SDS011;54464;50.558;9.704;2023-06-14T15:09:42;2.92;;;1.80;;
27161;SDS011;54464;50.558;9.704;2023-06-14T15:12:10;3.35;;;2.30;;